sensor_id;sensor_type;location;lat;lon;timestamp;temperature;humidity
15259;DHT22;34462;51.368;12.364;2023-02-01T00:01:24;3.70;99.90
15259;DHT22;34462;51.368;12.364;2023-02-01T00:03:52;3.70;99.90
15259;DHT22;34462;51.368;12.364;2023-02-01T00:06:20;3.70;99.90
15259;DHT22;34462;51.368;12.364;2023-02-01T00:08:51;3.70;99.90
15259;DHT22;34462;51.368;12.364;2023-02-01T00:11:21;3.60;99.90
15259;DHT22;34462;51.368;12.364;2023-02-01T00:13:51;3.60;99.90
15259;DHT22;34462;51.368;12.364;2023-02-01T00:16:21;3.50;99.90
15259;DHT22;34462;51.368;12.364;2023-02-01T00:18:57;3.50;99.90
15259;DHT22;34462;51.368;12.364;2023-02-01T00:21:27;3.40;99.90
15259;DHT22;34462;51.368;12.364;2023-02-01T00:23:57;3.40;99.90
15259;DHT22;34462;51.368;12.364;2023-02-01T00:26:30;3.40;99.90
15259;DHT22;34462;51.368;12.364;2023-02-01T00:28:59;3.50;99.90
15259;DHT22;34462;51.368;12.364;2023-02-01T00:31:29;3.50;99.90
15259;DHT22;34462;51.368;12.364;2023-02-01T00:33:58;3.60;99.90
15259;DHT22;34462;51.368;12.364;2023-02-01T00:36:26;3.60;99.90
15259;DHT22;34462;51.368;12.364;2023-02-01T00:38:55;3.60;99.90
15259;DHT22;34462;51.368;12.364;2023-02-01T00:41:23;3.60;99.90
15259;DHT22;34462;51.368;12.364;2023-02-01T00:43:52;3.70;99.90
15259;DHT22;34462;51.368;12.364;2023-02-01T00:46:20;3.70;99.90
15259;DHT22;34462;51.368;12.364;2023-02-01T00:48:50;3.70;99.90
15259;DHT22;34462;51.368;12.364;2023-02-01T00:51:21;3.70;99.90
15259;DHT22;34462;51.368;12.364;2023-02-01T00:53:50;3.70;99.90
15259;DHT22;34462;51.368;12.364;2023-02-01T00:56:19;3.70;99.90
15259;DHT22;34462;51.368;12.364;2023-02-01T00:58:48;3.70;99.90
15259;DHT22;34462;51.368;12.364;2023-02-01T01:01:18;3.80;99.90
15259;DHT22;34462;51.368;12.364;2023-02-01T01:03:51;3.90;99.90
15259;DHT22;34462;51.368;12.364;2023-02-01T01:06:23;3.90;99.90
15259;DHT22;34462;51.368;12.364;2023-02-01T01:08:53;3.90;99.90
15259;DHT22;34462;51.368;12.364;2023-02-01T01:11:23;4.00;99.90
15259;DHT22;34462;51.368;12.364;2023-02-01T01:13:55;4.00;99.90
15259;DHT22;34462;51.368;12.364;2023-02-01T01:16:26;3.90;99.90
15259;DHT22;34462;51.368;12.364;2023-02-01T01:18:57;3.90;99.90
15259;DHT22;34462;51.368;12.364;2023-02-01T01:21:26;3.90;99.90
15259;DHT22;34462;51.368;12.364;2023-02-01T01:23:54;3.80;99.90
15259;DHT22;34462;51.368;12.364;2023-02-01T01:26:25;3.90;99.90
15259;DHT22;34462;51.368;12.364;2023-02-01T01:28:56;3.90;99.90
15259;DHT22;34462;51.368;12.364;2023-02-01T01:31:25;3.90;99.90
15259;DHT22;34462;51.368;12.364;2023-02-01T01:33:57;3.90;99.90
15259;DHT22;34462;51.368;12.364;2023-02-01T01:36:28;3.90;99.90
15259;DHT22;34462;51.368;12.364;2023-02-01T01:38:57;4.00;99.90
15259;DHT22;34462;51.368;12.364;2023-02-01T01:41:29;4.00;99.90
15259;DHT22;34462;51.368;12.364;2023-02-01T01:44:01;3.90;99.90
15259;DHT22;34462;51.368;12.364;2023-02-01T01:46:32;4.00;99.90
15259;DHT22;34462;51.368;12.364;2023-02-01T01:49:07;4.00;99.90
15259;DHT22;34462;51.368;12.364;2023-02-01T01:51:42;4.00;99.90
15259;DHT22;34462;51.368;12.364;2023-02-01T01:54:18;4.00;99.90
15259;DHT22;34462;51.368;12.364;2023-02-01T01:56:56;4.00;99.90
15259;DHT22;34462;51.368;12.364;2023-02-01T01:59:27;4.00;99.90
15259;DHT22;34462;51.368;12.364;2023-02-01T02:01:56;3.90;99.90
15259;DHT22;34462;51.368;12.364;2023-02-01T02:04:26;3.90;99.90
15259;DHT22;34462;51.368;12.364;2023-02-01T02:06:57;4.00;99.90
15259;DHT22;34462;51.368;12.364;2023-02-01T02:09:30;4.00;99.90
15259;DHT22;34462;51.368;12.364;2023-02-01T02:11:58;4.00;99.90
15259;DHT22;34462;51.368;12.364;2023-02-01T02:14:26;3.90;99.90
15259;DHT22;34462;51.368;12.364;2023-02-01T02:17:07;4.00;99.90
15259;DHT22;34462;51.368;12.364;2023-02-01T02:20:11;3.90;99.90
15259;DHT22;34462;51.368;12.364;2023-02-01T02:23:20;4.00;99.90
15259;DHT22;34462;51.368;12.364;2023-02-01T02:29:53;4.00;99.90
15259;DHT22;34462;51.368;12.364;2023-02-01T02:33:01;4.10;99.90
15259;DHT22;34462;51.368;12.364;2023-02-01T02:36:00;4.10;99.90
15259;DHT22;34462;51.368;12.364;2023-02-01T02:38:39;4.10;99.90
15259;DHT22;34462;51.368;12.364;2023-02-01T02:41:16;4.10;99.90
15259;DHT22;34462;51.368;12.364;2023-02-01T02:44:08;4.20;99.90
15259;DHT22;34462;51.368;12.364;2023-02-01T02:47:02;4.10;99.90
15259;DHT22;34462;51.368;12.364;2023-02-01T02:50:05;4.10;99.90
15259;DHT22;34462;51.368;12.364;2023-02-01T02:53:02;4.20;99.90
15259;DHT22;34462;51.368;12.364;2023-02-01T02:55:52;4.20;99.90
15259;DHT22;34462;51.368;12.364;2023-02-01T02:58:39;4.20;99.90
15259;DHT22;34462;51.368;12.364;2023-02-01T03:01:28;4.20;99.90
15259;DHT22;34462;51.368;12.364;2023-02-01T03:04:15;4.10;99.90
15259;DHT22;34462;51.368;12.364;2023-02-01T03:06:45;4.10;99.90
15259;DHT22;34462;51.368;12.364;2023-02-01T03:09:18;4.10;99.90
15259;DHT22;34462;51.368;12.364;2023-02-01T03:11:55;4.20;99.90
15259;DHT22;34462;51.368;12.364;2023-02-01T03:14:48;4.20;99.90
15259;DHT22;34462;51.368;12.364;2023-02-01T03:17:26;4.30;99.90
15259;DHT22;34462;51.368;12.364;2023-02-01T03:20:01;4.30;99.90
15259;DHT22;34462;51.368;12.364;2023-02-01T03:22:35;4.30;99.90
15259;DHT22;34462;51.368;12.364;2023-02-01T03:25:10;4.40;99.90
15259;DHT22;34462;51.368;12.364;2023-02-01T03:27:43;4.40;99.90
15259;DHT22;34462;51.368;12.364;2023-02-01T03:30:18;4.40;99.90
15259;DHT22;34462;51.368;12.364;2023-02-01T03:32:51;4.50;99.90
15259;DHT22;34462;51.368;12.364;2023-02-01T03:35:31;4.50;99.90
15259;DHT22;34462;51.368;12.364;2023-02-01T03:38:11;4.60;99.90
15259;DHT22;34462;51.368;12.364;2023-02-01T03:40:53;4.60;99.90
15259;DHT22;34462;51.368;12.364;2023-02-01T03:43:28;4.60;99.90
15259;DHT22;34462;51.368;12.364;2023-02-01T03:46:04;4.60;99.90
15259;DHT22;34462;51.368;12.364;2023-02-01T03:48:38;4.60;99.90
15259;DHT22;34462;51.368;12.364;2023-02-01T03:51:09;4.60;99.90
15259;DHT22;34462;51.368;12.364;2023-02-01T03:53:40;4.60;99.90
15259;DHT22;34462;51.368;12.364;2023-02-01T03:56:12;4.60;99.90
15259;DHT22;34462;51.368;12.364;2023-02-01T03:58:41;4.50;99.90
15259;DHT22;34462;51.368;12.364;2023-02-01T04:01:25;4.50;99.90
15259;DHT22;34462;51.368;12.364;2023-02-01T04:03:55;4.50;99.90
15259;DHT22;34462;51.368;12.364;2023-02-01T04:06:25;4.50;99.90
15259;DHT22;34462;51.368;12.364;2023-02-01T04:08:55;4.50;99.90
15259;DHT22;34462;51.368;12.364;2023-02-01T04:11:23;4.50;99.90
15259;DHT22;34462;51.368;12.364;2023-02-01T04:13:51;4.50;99.90
15259;DHT22;34462;51.368;12.364;2023-02-01T04:16:19;4.50;99.90
15259;DHT22;34462;51.368;12.364;2023-02-01T04:18:48;4.50;99.90
15259;DHT22;34462;51.368;12.364;2023-02-01T04:21:16;4.50;99.90
15259;DHT22;34462;51.368;12.364;2023-02-01T04:23:44;4.50;99.90
15259;DHT22;34462;51.368;12.364;2023-02-01T04:26:13;4.50;99.90
15259;DHT22;34462;51.368;12.364;2023-02-01T04:28:42;4.50;99.90
15259;DHT22;34462;51.368;12.364;2023-02-01T04:31:11;4.50;99.90
15259;DHT22;34462;51.368;12.364;2023-02-01T04:33:39;4.50;99.90
15259;DHT22;34462;51.368;12.364;2023-02-01T04:36:07;4.50;99.90
15259;DHT22;34462;51.368;12.364;2023-02-01T04:38:36;4.60;99.90
15259;DHT22;34462;51.368;12.364;2023-02-01T04:41:04;4.50;99.90
15259;DHT22;34462;51.368;12.364;2023-02-01T04:43:34;4.50;99.90
15259;DHT22;34462;51.368;12.364;2023-02-01T04:46:02;4.50;99.90
15259;DHT22;34462;51.368;12.364;2023-02-01T04:48:31;4.50;99.90
15259;DHT22;34462;51.368;12.364;2023-02-01T04:50:59;4.50;99.90
15259;DHT22;34462;51.368;12.364;2023-02-01T04:53:27;4.50;99.90
15259;DHT22;34462;51.368;12.364;2023-02-01T04:55:56;4.60;99.90
15259;DHT22;34462;51.368;12.364;2023-02-01T04:58:24;4.60;99.90
15259;DHT22;34462;51.368;12.364;2023-02-01T05:00:54;4.60;99.90
15259;DHT22;34462;51.368;12.364;2023-02-01T05:03:22;4.60;99.90
15259;DHT22;34462;51.368;12.364;2023-02-01T05:05:50;4.60;99.90
15259;DHT22;34462;51.368;12.364;2023-02-01T05:08:20;4.60;99.90
15259;DHT22;34462;51.368;12.364;2023-02-01T05:10:48;4.50;99.90
15259;DHT22;34462;51.368;12.364;2023-02-01T05:13:17;4.50;99.90
15259;DHT22;34462;51.368;12.364;2023-02-01T05:16:04;4.50;99.90
15259;DHT22;34462;51.368;12.364;2023-02-01T05:18:33;4.50;99.90
15259;DHT22;34462;51.368;12.364;2023-02-01T05:21:01;4.40;99.90
15259;DHT22;34462;51.368;12.364;2023-02-01T05:23:29;4.50;99.90
15259;DHT22;34462;51.368;12.364;2023-02-01T05:26:01;4.50;99.90
15259;DHT22;34462;51.368;12.364;2023-02-01T05:28:29;4.50;99.90
15259;DHT22;34462;51.368;12.364;2023-02-01T05:30:57;4.50;99.90
15259;DHT22;34462;51.368;12.364;2023-02-01T05:33:27;4.50;99.90
15259;DHT22;34462;51.368;12.364;2023-02-01T05:35:57;4.50;99.90
15259;DHT22;34462;51.368;12.364;2023-02-01T05:38:25;4.50;99.90
15259;DHT22;34462;51.368;12.364;2023-02-01T05:40:53;4.50;99.90
15259;DHT22;34462;51.368;12.364;2023-02-01T05:43:22;4.40;99.90
15259;DHT22;34462;51.368;12.364;2023-02-01T05:45:51;4.40;99.90
15259;DHT22;34462;51.368;12.364;2023-02-01T05:48:19;4.30;99.90
15259;DHT22;34462;51.368;12.364;2023-02-01T05:50:49;4.20;99.90
15259;DHT22;34462;51.368;12.364;2023-02-01T05:53:17;4.30;99.90
15259;DHT22;34462;51.368;12.364;2023-02-01T05:55:45;4.30;99.90
15259;DHT22;34462;51.368;12.364;2023-02-01T05:58:14;4.30;99.90
15259;DHT22;34462;51.368;12.364;2023-02-01T06:00:42;4.40;99.90
15259;DHT22;34462;51.368;12.364;2023-02-01T06:03:10;4.40;99.90
15259;DHT22;34462;51.368;12.364;2023-02-01T06:05:38;4.50;99.90
15259;DHT22;34462;51.368;12.364;2023-02-01T06:08:10;4.50;99.90
15259;DHT22;34462;51.368;12.364;2023-02-01T06:10:38;4.50;99.90
15259;DHT22;34462;51.368;12.364;2023-02-01T06:13:06;4.50;99.90
15259;DHT22;34462;51.368;12.364;2023-02-01T06:15:35;4.50;99.90
15259;DHT22;34462;51.368;12.364;2023-02-01T06:18:04;4.60;99.90
15259;DHT22;34462;51.368;12.364;2023-02-01T06:20:32;4.60;99.90
15259;DHT22;34462;51.368;12.364;2023-02-01T06:23:00;4.60;99.90
15259;DHT22;34462;51.368;12.364;2023-02-01T06:25:30;4.60;99.90
15259;DHT22;34462;51.368;12.364;2023-02-01T06:28:00;4.60;99.90
15259;DHT22;34462;51.368;12.364;2023-02-01T06:30:28;4.60;99.90
15259;DHT22;34462;51.368;12.364;2023-02-01T06:32:57;4.70;99.90
15259;DHT22;34462;51.368;12.364;2023-02-01T06:35:25;4.60;99.90
15259;DHT22;34462;51.368;12.364;2023-02-01T06:37:53;4.60;99.90
15259;DHT22;34462;51.368;12.364;2023-02-01T06:40:21;4.50;99.90
15259;DHT22;34462;51.368;12.364;2023-02-01T06:42:51;4.60;99.90
15259;DHT22;34462;51.368;12.364;2023-02-01T06:45:19;4.70;99.90
15259;DHT22;34462;51.368;12.364;2023-02-01T06:47:47;4.60;99.90
15259;DHT22;34462;51.368;12.364;2023-02-01T06:50:16;4.60;99.90
15259;DHT22;34462;51.368;12.364;2023-02-01T06:52:44;4.70;99.90
15259;DHT22;34462;51.368;12.364;2023-02-01T06:55:12;4.70;99.90
15259;DHT22;34462;51.368;12.364;2023-02-01T06:57:40;4.70;99.90
15259;DHT22;34462;51.368;12.364;2023-02-01T07:00:11;4.70;99.90
15259;DHT22;34462;51.368;12.364;2023-02-01T07:02:40;4.80;99.90
15259;DHT22;34462;51.368;12.364;2023-02-01T07:05:08;4.90;99.90
15259;DHT22;34462;51.368;12.364;2023-02-01T07:07:36;4.90;99.90
15259;DHT22;34462;51.368;12.364;2023-02-01T07:10:05;4.90;99.90
15259;DHT22;34462;51.368;12.364;2023-02-01T07:12:34;4.90;99.90
15259;DHT22;34462;51.368;12.364;2023-02-01T07:15:02;4.90;99.90
15259;DHT22;34462;51.368;12.364;2023-02-01T07:17:32;5.00;99.90
15259;DHT22;34462;51.368;12.364;2023-02-01T07:20:00;5.00;99.90
15259;DHT22;34462;51.368;12.364;2023-02-01T07:22:29;5.00;99.90
15259;DHT22;34462;51.368;12.364;2023-02-01T07:24:57;5.00;99.90
15259;DHT22;34462;51.368;12.364;2023-02-01T07:27:26;5.00;99.90
15259;DHT22;34462;51.368;12.364;2023-02-01T07:29:55;5.00;99.90
15259;DHT22;34462;51.368;12.364;2023-02-01T07:32:28;5.00;99.90
15259;DHT22;34462;51.368;12.364;2023-02-01T07:34:58;5.00;99.90
15259;DHT22;34462;51.368;12.364;2023-02-01T07:37:26;5.10;99.90
15259;DHT22;34462;51.368;12.364;2023-02-01T07:39:54;5.10;99.90
15259;DHT22;34462;51.368;12.364;2023-02-01T07:42:23;5.20;99.90
15259;DHT22;34462;51.368;12.364;2023-02-01T07:44:51;5.30;99.90
15259;DHT22;34462;51.368;12.364;2023-02-01T07:47:19;5.30;99.90
15259;DHT22;34462;51.368;12.364;2023-02-01T07:49:47;5.30;99.90
15259;DHT22;34462;51.368;12.364;2023-02-01T07:52:17;5.30;99.90
15259;DHT22;34462;51.368;12.364;2023-02-01T07:54:45;5.40;99.90
15259;DHT22;34462;51.368;12.364;2023-02-01T07:57:13;5.40;99.90
15259;DHT22;34462;51.368;12.364;2023-02-01T07:59:41;5.40;99.90
15259;DHT22;34462;51.368;12.364;2023-02-01T08:02:23;5.40;99.90
15259;DHT22;34462;51.368;12.364;2023-02-01T08:04:51;5.50;99.90
15259;DHT22;34462;51.368;12.364;2023-02-01T08:07:21;5.40;99.90
15259;DHT22;34462;51.368;12.364;2023-02-01T08:09:49;5.40;99.90
15259;DHT22;34462;51.368;12.364;2023-02-01T08:12:17;5.40;99.90
15259;DHT22;34462;51.368;12.364;2023-02-01T08:14:47;5.40;99.90
15259;DHT22;34462;51.368;12.364;2023-02-01T08:17:15;5.40;99.90
15259;DHT22;34462;51.368;12.364;2023-02-01T08:19:43;5.40;99.90
15259;DHT22;34462;51.368;12.364;2023-02-01T08:22:11;5.40;99.90
15259;DHT22;34462;51.368;12.364;2023-02-01T08:24:41;5.40;99.90
15259;DHT22;34462;51.368;12.364;2023-02-01T08:27:09;5.40;99.90
15259;DHT22;34462;51.368;12.364;2023-02-01T08:29:39;5.40;99.90
15259;DHT22;34462;51.368;12.364;2023-02-01T08:32:07;5.40;99.90
15259;DHT22;34462;51.368;12.364;2023-02-01T08:34:35;5.40;99.90
15259;DHT22;34462;51.368;12.364;2023-02-01T08:37:03;5.30;99.90
15259;DHT22;34462;51.368;12.364;2023-02-01T08:39:31;5.20;99.90
15259;DHT22;34462;51.368;12.364;2023-02-01T08:42:01;5.20;99.90
15259;DHT22;34462;51.368;12.364;2023-02-01T08:44:46;5.10;99.90
15259;DHT22;34462;51.368;12.364;2023-02-01T08:47:14;5.00;99.90
15259;DHT22;34462;51.368;12.364;2023-02-01T08:49:42;4.90;99.90
15259;DHT22;34462;51.368;12.364;2023-02-01T08:52:11;4.80;99.90
15259;DHT22;34462;51.368;12.364;2023-02-01T08:54:42;4.60;99.90
15259;DHT22;34462;51.368;12.364;2023-02-01T08:57:11;4.50;99.90
15259;DHT22;34462;51.368;12.364;2023-02-01T08:59:39;4.50;99.90
15259;DHT22;34462;51.368;12.364;2023-02-01T09:02:10;4.40;99.90
15259;DHT22;34462;51.368;12.364;2023-02-01T09:04:40;4.30;99.90
15259;DHT22;34462;51.368;12.364;2023-02-01T09:07:09;4.30;99.90
15259;DHT22;34462;51.368;12.364;2023-02-01T09:09:39;4.30;99.90
15259;DHT22;34462;51.368;12.364;2023-02-01T09:12:07;4.40;99.90
15259;DHT22;34462;51.368;12.364;2023-02-01T09:14:37;4.40;99.90
15259;DHT22;34462;51.368;12.364;2023-02-01T09:17:05;4.40;99.90
15259;DHT22;34462;51.368;12.364;2023-02-01T09:19:33;4.40;99.90
15259;DHT22;34462;51.368;12.364;2023-02-01T09:22:01;4.40;99.90
15259;DHT22;34462;51.368;12.364;2023-02-01T09:24:30;4.40;99.90
15259;DHT22;34462;51.368;12.364;2023-02-01T09:26:58;4.40;99.90
15259;DHT22;34462;51.368;12.364;2023-02-01T09:29:26;4.50;99.90
15259;DHT22;34462;51.368;12.364;2023-02-01T09:31:56;4.50;99.90
15259;DHT22;34462;51.368;12.364;2023-02-01T09:34:30;4.50;99.90
15259;DHT22;34462;51.368;12.364;2023-02-01T09:36:58;4.50;99.90
15259;DHT22;34462;51.368;12.364;2023-02-01T09:39:26;4.60;99.90
15259;DHT22;34462;51.368;12.364;2023-02-01T09:42:07;4.60;99.90
15259;DHT22;34462;51.368;12.364;2023-02-01T09:45:04;4.70;99.90
15259;DHT22;34462;51.368;12.364;2023-02-01T09:47:47;4.80;99.90
15259;DHT22;34462;51.368;12.364;2023-02-01T09:50:21;5.00;99.90
15259;DHT22;34462;51.368;12.364;2023-02-01T09:52:58;5.20;99.90
15259;DHT22;34462;51.368;12.364;2023-02-01T09:55:35;5.30;99.90
15259;DHT22;34462;51.368;12.364;2023-02-01T09:58:12;5.40;99.90
15259;DHT22;34462;51.368;12.364;2023-02-01T10:00:50;5.40;99.90
15259;DHT22;34462;51.368;12.364;2023-02-01T10:03:24;5.50;99.90
15259;DHT22;34462;51.368;12.364;2023-02-01T10:06:15;5.50;99.90
15259;DHT22;34462;51.368;12.364;2023-02-01T10:09:08;5.50;99.90
15259;DHT22;34462;51.368;12.364;2023-02-01T10:11:55;5.60;99.90
15259;DHT22;34462;51.368;12.364;2023-02-01T10:14:56;5.70;99.90
15259;DHT22;34462;51.368;12.364;2023-02-01T10:17:44;5.90;99.90
15259;DHT22;34462;51.368;12.364;2023-02-01T10:20:29;5.90;99.90
15259;DHT22;34462;51.368;12.364;2023-02-01T10:23:39;5.90;99.90
15259;DHT22;34462;51.368;12.364;2023-02-01T10:26:19;6.00;99.90
15259;DHT22;34462;51.368;12.364;2023-02-01T10:28:51;6.00;99.90
15259;DHT22;34462;51.368;12.364;2023-02-01T10:31:24;6.20;99.90
15259;DHT22;34462;51.368;12.364;2023-02-01T10:33:57;6.20;99.90
15259;DHT22;34462;51.368;12.364;2023-02-01T10:36:29;6.20;99.90
15259;DHT22;34462;51.368;12.364;2023-02-01T10:39:04;6.30;99.90
15259;DHT22;34462;51.368;12.364;2023-02-01T10:41:35;6.30;99.90
15259;DHT22;34462;51.368;12.364;2023-02-01T10:44:10;6.40;99.90
15259;DHT22;34462;51.368;12.364;2023-02-01T10:46:41;6.40;99.90
15259;DHT22;34462;51.368;12.364;2023-02-01T10:49:15;6.40;99.90
15259;DHT22;34462;51.368;12.364;2023-02-01T10:51:50;6.40;99.90
15259;DHT22;34462;51.368;12.364;2023-02-01T10:54:32;6.40;99.90
15259;DHT22;34462;51.368;12.364;2023-02-01T10:57:01;6.60;99.90
15259;DHT22;34462;51.368;12.364;2023-02-01T10:59:29;6.70;99.90
15259;DHT22;34462;51.368;12.364;2023-02-01T11:02:00;6.70;99.90
15259;DHT22;34462;51.368;12.364;2023-02-01T11:04:34;6.80;99.90
15259;DHT22;34462;51.368;12.364;2023-02-01T11:07:15;7.10;99.90
15259;DHT22;34462;51.368;12.364;2023-02-01T11:09:50;7.60;99.90
15259;DHT22;34462;51.368;12.364;2023-02-01T11:12:27;8.00;99.90
15259;DHT22;34462;51.368;12.364;2023-02-01T11:15:01;8.00;99.90
15259;DHT22;34462;51.368;12.364;2023-02-01T11:17:42;8.00;99.90
15259;DHT22;34462;51.368;12.364;2023-02-01T11:20:14;7.90;99.90
15259;DHT22;34462;51.368;12.364;2023-02-01T11:22:53;7.80;99.90
15259;DHT22;34462;51.368;12.364;2023-02-01T11:25:23;7.60;99.90
15259;DHT22;34462;51.368;12.364;2023-02-01T11:27:54;7.50;99.90
15259;DHT22;34462;51.368;12.364;2023-02-01T11:30:31;7.30;99.90
15259;DHT22;34462;51.368;12.364;2023-02-01T11:33:04;7.20;99.90
15259;DHT22;34462;51.368;12.364;2023-02-01T11:35:37;7.30;99.90
15259;DHT22;34462;51.368;12.364;2023-02-01T11:38:19;7.40;99.90
15259;DHT22;34462;51.368;12.364;2023-02-01T11:40:49;7.50;99.90
15259;DHT22;34462;51.368;12.364;2023-02-01T11:43:23;7.50;99.90
15259;DHT22;34462;51.368;12.364;2023-02-01T11:45:57;7.70;99.90
15259;DHT22;34462;51.368;12.364;2023-02-01T11:48:28;7.80;99.90
15259;DHT22;34462;51.368;12.364;2023-02-01T11:51:19;7.70;99.90
15259;DHT22;34462;51.368;12.364;2023-02-01T11:54:10;7.50;99.90
15259;DHT22;34462;51.368;12.364;2023-02-01T11:56:57;7.50;99.90
15259;DHT22;34462;51.368;12.364;2023-02-01T11:59:53;7.60;99.90
15259;DHT22;34462;51.368;12.364;2023-02-01T12:05:58;7.60;99.90
15259;DHT22;34462;51.368;12.364;2023-02-01T12:08:58;7.50;99.90
15259;DHT22;34462;51.368;12.364;2023-02-01T12:11:47;7.50;99.90
15259;DHT22;34462;51.368;12.364;2023-02-01T12:14:36;7.50;99.90
15259;DHT22;34462;51.368;12.364;2023-02-01T12:17:37;7.50;99.90
15259;DHT22;34462;51.368;12.364;2023-02-01T12:20:43;7.60;99.90
15259;DHT22;34462;51.368;12.364;2023-02-01T12:23:54;7.50;99.90
15259;DHT22;34462;51.368;12.364;2023-02-01T12:27:07;7.60;99.90
15259;DHT22;34462;51.368;12.364;2023-02-01T12:30:02;7.60;99.90
15259;DHT22;34462;51.368;12.364;2023-02-01T12:33:05;7.60;99.90
15259;DHT22;34462;51.368;12.364;2023-02-01T12:35:58;7.60;99.90
15259;DHT22;34462;51.368;12.364;2023-02-01T12:38:51;7.60;99.90
15259;DHT22;34462;51.368;12.364;2023-02-01T12:41:44;7.60;99.90
15259;DHT22;34462;51.368;12.364;2023-02-01T12:44:27;7.60;99.90
15259;DHT22;34462;51.368;12.364;2023-02-01T12:47:04;7.60;99.90
15259;DHT22;34462;51.368;12.364;2023-02-01T12:49:48;7.60;99.90
15259;DHT22;34462;51.368;12.364;2023-02-01T12:52:28;7.60;99.90
15259;DHT22;34462;51.368;12.364;2023-02-01T12:55:09;7.60;99.90
15259;DHT22;34462;51.368;12.364;2023-02-01T12:57:47;7.50;99.90
15259;DHT22;34462;51.368;12.364;2023-02-01T13:00:25;7.50;99.90
15259;DHT22;34462;51.368;12.364;2023-02-01T13:03:09;7.50;99.90
15259;DHT22;34462;51.368;12.364;2023-02-01T13:05:48;7.50;99.90
15259;DHT22;34462;51.368;12.364;2023-02-01T13:08:24;7.50;99.90
15259;DHT22;34462;51.368;12.364;2023-02-01T13:11:03;7.40;99.90
15259;DHT22;34462;51.368;12.364;2023-02-01T13:13:42;7.40;99.90
15259;DHT22;34462;51.368;12.364;2023-02-01T13:16:21;7.30;99.90
15259;DHT22;34462;51.368;12.364;2023-02-01T13:19:02;7.30;99.90
15259;DHT22;34462;51.368;12.364;2023-02-01T13:21:40;7.30;99.90
15259;DHT22;34462;51.368;12.364;2023-02-01T13:24:26;7.20;99.90
15259;DHT22;34462;51.368;12.364;2023-02-01T13:26:59;7.20;99.90
15259;DHT22;34462;51.368;12.364;2023-02-01T13:29:28;7.20;99.90
15259;DHT22;34462;51.368;12.364;2023-02-01T13:32:25;7.10;99.90
15259;DHT22;34462;51.368;12.364;2023-02-01T13:35:53;7.00;99.90
15259;DHT22;34462;51.368;12.364;2023-02-01T13:38:54;7.10;99.90
15259;DHT22;34462;51.368;12.364;2023-02-01T13:41:41;7.00;99.90
15259;DHT22;34462;51.368;12.364;2023-02-01T13:44:25;7.00;99.90
15259;DHT22;34462;51.368;12.364;2023-02-01T13:47:01;7.10;99.90
15259;DHT22;34462;51.368;12.364;2023-02-01T13:49:38;7.10;99.90
15259;DHT22;34462;51.368;12.364;2023-02-01T13:52:23;7.20;99.90
15259;DHT22;34462;51.368;12.364;2023-02-01T13:55:03;7.30;99.90
15259;DHT22;34462;51.368;12.364;2023-02-01T13:58:13;7.40;99.90
15259;DHT22;34462;51.368;12.364;2023-02-01T14:00:45;7.30;99.90
15259;DHT22;34462;51.368;12.364;2023-02-01T14:03:17;7.30;99.90
15259;DHT22;34462;51.368;12.364;2023-02-01T14:09:14;7.10;99.90
15259;DHT22;34462;51.368;12.364;2023-02-01T14:11:48;7.10;99.90
15259;DHT22;34462;51.368;12.364;2023-02-01T14:14:44;7.10;99.90
15259;DHT22;34462;51.368;12.364;2023-02-01T14:17:34;7.00;99.90
15259;DHT22;34462;51.368;12.364;2023-02-01T14:23:27;7.10;99.90
15259;DHT22;34462;51.368;12.364;2023-02-01T14:26:13;7.10;99.90
15259;DHT22;34462;51.368;12.364;2023-02-01T14:28:53;7.10;99.90
15259;DHT22;34462;51.368;12.364;2023-02-01T14:34:39;7.10;99.90
15259;DHT22;34462;51.368;12.364;2023-02-01T14:37:28;7.30;99.90
15259;DHT22;34462;51.368;12.364;2023-02-01T14:40:01;7.40;99.90
15259;DHT22;34462;51.368;12.364;2023-02-01T14:42:38;7.50;99.90
15259;DHT22;34462;51.368;12.364;2023-02-01T14:45:46;7.40;99.90
15259;DHT22;34462;51.368;12.364;2023-02-01T14:48:44;7.40;99.90
15259;DHT22;34462;51.368;12.364;2023-02-01T14:51:16;7.30;99.90
15259;DHT22;34462;51.368;12.364;2023-02-01T14:53:45;7.20;99.90
15259;DHT22;34462;51.368;12.364;2023-02-01T14:56:17;7.10;99.90
15259;DHT22;34462;51.368;12.364;2023-02-01T14:58:52;7.10;99.90
15259;DHT22;34462;51.368;12.364;2023-02-01T15:01:27;7.00;99.90
15259;DHT22;34462;51.368;12.364;2023-02-01T15:04:03;7.00;99.90
15259;DHT22;34462;51.368;12.364;2023-02-01T15:06:37;7.00;99.90
15259;DHT22;34462;51.368;12.364;2023-02-01T15:09:10;6.80;99.90
15259;DHT22;34462;51.368;12.364;2023-02-01T15:12:00;6.80;99.90
15259;DHT22;34462;51.368;12.364;2023-02-01T15:14:31;6.70;99.90
15259;DHT22;34462;51.368;12.364;2023-02-01T15:17:02;6.60;99.90
15259;DHT22;34462;51.368;12.364;2023-02-01T15:19:52;6.50;99.90
15259;DHT22;34462;51.368;12.364;2023-02-01T15:22:22;6.40;99.90
15259;DHT22;34462;51.368;12.364;2023-02-01T15:24:52;6.40;99.90
15259;DHT22;34462;51.368;12.364;2023-02-01T15:27:23;6.40;99.90
15259;DHT22;34462;51.368;12.364;2023-02-01T15:29:51;6.40;99.90
15259;DHT22;34462;51.368;12.364;2023-02-01T15:32:29;6.30;99.90
15259;DHT22;34462;51.368;12.364;2023-02-01T15:34:59;6.30;99.90
15259;DHT22;34462;51.368;12.364;2023-02-01T15:37:28;6.30;99.90
15259;DHT22;34462;51.368;12.364;2023-02-01T15:40:17;6.20;99.90
15259;DHT22;34462;51.368;12.364;2023-02-01T15:42:52;6.20;99.90
15259;DHT22;34462;51.368;12.364;2023-02-01T15:45:25;6.10;99.90
15259;DHT22;34462;51.368;12.364;2023-02-01T15:47:57;6.10;99.90
15259;DHT22;34462;51.368;12.364;2023-02-01T15:50:29;6.10;99.90
15259;DHT22;34462;51.368;12.364;2023-02-01T15:52:58;6.10;99.90
15259;DHT22;34462;51.368;12.364;2023-02-01T15:55:36;6.10;99.90
15259;DHT22;34462;51.368;12.364;2023-02-01T15:58:19;6.10;99.90
15259;DHT22;34462;51.368;12.364;2023-02-01T16:00:52;6.00;99.90
15259;DHT22;34462;51.368;12.364;2023-02-01T16:03:27;5.90;99.90
15259;DHT22;34462;51.368;12.364;2023-02-01T16:06:04;5.70;99.90
15259;DHT22;34462;51.368;12.364;2023-02-01T16:08:34;5.00;99.90
15259;DHT22;34462;51.368;12.364;2023-02-01T16:11:26;4.10;99.90
15259;DHT22;34462;51.368;12.364;2023-02-01T16:13:59;3.20;99.90
15259;DHT22;34462;51.368;12.364;2023-02-01T16:16:29;2.80;99.90
15259;DHT22;34462;51.368;12.364;2023-02-01T16:18:57;2.60;99.90
15259;DHT22;34462;51.368;12.364;2023-02-01T16:21:25;2.50;99.90
15259;DHT22;34462;51.368;12.364;2023-02-01T16:23:53;2.60;99.90
15259;DHT22;34462;51.368;12.364;2023-02-01T16:26:22;2.60;99.90
15259;DHT22;34462;51.368;12.364;2023-02-01T16:28:50;2.50;99.90
15259;DHT22;34462;51.368;12.364;2023-02-01T16:31:23;2.60;99.90
15259;DHT22;34462;51.368;12.364;2023-02-01T16:33:55;2.60;99.90
15259;DHT22;34462;51.368;12.364;2023-02-01T16:36:23;2.60;99.90